Beloit, Kansas
Current Conditions -  °F | °C
As of 9:55 AM on Tuesday 27 Jan 2015 (Local Time) from KCNK Reporting Station
Clear Clear  
Wind Chill: 45°   Ceiling: Unl
Heat Index: 48°   Visibility: 10mi
Dew Point: 35°   Wind: 6mph
Humidity: 61%   Direction: 120°ESE
Pressure: 30.1"   Gusts: NA
Location:  39.46°N, 98.11°W
Report Text: KCNK 271555Z AUTO 12005KT 10SM CLR 09/02 A3010 RMK AO2 SLP194 T00890017
Loading
Personal Weather Stations






























Interactive Weather Map New forecast layout! Learn more

10-Day Weather Forecast

Advertisements
Track Severe Weather on mobile